AFR28 KLAX-NTAA
Flight info
| Callsign | AFR28 |
|---|---|
| Flight time | N/A |
| Altitude | 40000 |
| Route | SUMMR2 FICKY DCT HILCO DCT 25N126W 20N128W 15N130W 10N132W 0330N13555W 00N138W 05S141W 10S144W/N0484F430 15S147W DCT ASOKI ASOKI4T |
| Aircraft | A359/H-SDE2E3GHIJ1J3J4J5LM1ORWXY/LB1D1 |
Departure
| Time | 2026-04-21 21:46 |
|---|---|
| Airport | Los Angeles International Airport (KLAX) |
Arrival
| Time | N/A |
|---|---|
| Airport | Fa'a'ā International Airport (NTAA) |
| Time | Latitude | Longitude | Altitude | Speed | Heading |
|---|---|---|---|---|---|
| 2026-04-21 21:08 | 33.94413 | -118.41600 | 100 ft | 0 kts | 83° |
| 2026-04-21 21:09 | 33.94414 | -118.41583 | 103 ft | 0 kts | 83° |
| 2026-04-21 21:31 | 33.94414 | -118.41587 | 101 ft | 2 kts | 83° |
| 2026-04-21 21:32 | 33.94412 | -118.41609 | 99 ft | 3 kts | 83° |
| 2026-04-21 21:32 | 33.94409 | -118.41633 | 99 ft | 3 kts | 83° |
| 2026-04-21 21:32 | 33.94407 | -118.41656 | 98 ft | 3 kts | 73° |
| 2026-04-21 21:32 | 33.94399 | -118.41675 | 99 ft | 3 kts | 30° |
| 2026-04-21 21:33 | 33.94384 | -118.41681 | 100 ft | 2 kts | 353° |
| 2026-04-21 21:33 | 33.94372 | -118.41679 | 98 ft | 3 kts | 352° |
| 2026-04-21 21:33 | 33.94352 | -118.41676 | 98 ft | 3 kts | 352° |
| 2026-04-21 21:33 | 33.94332 | -118.41672 | 98 ft | 2 kts | 352° |
| 2026-04-21 21:34 | 33.94326 | -118.41671 | 101 ft | 0 kts | 352° |
| 2026-04-21 21:38 | 33.94333 | -118.41673 | 101 ft | 3 kts | 352° |
| 2026-04-21 21:39 | 33.94380 | -118.41680 | 100 ft | 11 kts | 352° |
| 2026-04-21 21:39 | 33.94477 | -118.41696 | 101 ft | 17 kts | 352° |
| 2026-04-21 21:39 | 33.94598 | -118.41713 | 101 ft | 16 kts | 358° |
| 2026-04-21 21:39 | 33.94656 | -118.41629 | 99 ft | 15 kts | 82° |
| 2026-04-21 21:40 | 33.94669 | -118.41500 | 100 ft | 16 kts | 83° |
| 2026-04-21 21:40 | 33.94686 | -118.41405 | 100 ft | 11 kts | 55° |
| 2026-04-21 21:40 | 33.94754 | -118.41390 | 101 ft | 10 kts | 11° |
| 2026-04-21 21:40 | 33.94788 | -118.41327 | 104 ft | 10 kts | 83° |
| 2026-04-21 21:41 | 33.94799 | -118.41217 | 101 ft | 16 kts | 83° |
| 2026-04-21 21:41 | 33.94816 | -118.41060 | 102 ft | 22 kts | 83° |
| 2026-04-21 21:41 | 33.94836 | -118.40857 | 101 ft | 27 kts | 83° |
| 2026-04-21 21:41 | 33.94860 | -118.40630 | 100 ft | 28 kts | 83° |
| 2026-04-21 21:42 | 33.94883 | -118.40405 | 101 ft | 26 kts | 83° |
| 2026-04-21 21:42 | 33.94898 | -118.40259 | 101 ft | 7 kts | 82° |
| 2026-04-21 21:42 | 33.94898 | -118.40256 | 101 ft | 0 kts | 82° |
| 2026-04-21 21:43 | 33.94899 | -118.40245 | 103 ft | 6 kts | 82° |
| 2026-04-21 21:43 | 33.94909 | -118.40150 | 101 ft | 16 kts | 83° |
| 2026-04-21 21:43 | 33.94923 | -118.40010 | 100 ft | 14 kts | 83° |
| 2026-04-21 21:44 | 33.94943 | -118.39934 | 101 ft | 1 kts | 51° |
| 2026-04-21 21:44 | 33.94945 | -118.39932 | 100 ft | 1 kts | 48° |
| 2026-04-21 21:44 | 33.94967 | -118.39919 | 103 ft | 7 kts | 20° |
| 2026-04-21 21:44 | 33.95034 | -118.39927 | 101 ft | 10 kts | 313° |
| 2026-04-21 21:45 | 33.95036 | -118.40022 | 102 ft | 15 kts | 263° |
| 2026-04-21 21:45 | 33.94993 | -118.40417 | 103 ft | 81 kts | 264° |
| 2026-04-21 21:45 | 33.94902 | -118.41337 | 105 ft | 139 kts | 261° |
| 2026-04-21 21:45 | 33.94799 | -118.42636 | 433 ft | 159 kts | 265° |
| 2026-04-21 21:46 | 33.94724 | -118.43947 | 1168 ft | 157 kts | 265° |
| 2026-04-21 21:46 | 33.94655 | -118.45323 | 1598 ft | 175 kts | 261° |
| 2026-04-21 21:46 | 33.94480 | -118.46869 | 1847 ft | 199 kts | 257° |